sensor_id;sensor_type;location;lat;lon;timestamp;P1;durP1;ratioP1;P2;durP2;ratioP2
2107;SDS011;1060;52.492;13.388;2022-09-09T00:00:33;17.07;;;15.57;;
2107;SDS011;1060;52.492;13.388;2022-09-09T00:03:26;20.13;;;18.33;;
2107;SDS011;1060;52.492;13.388;2022-09-09T00:24:57;19.90;;;18.00;;
2107;SDS011;1060;52.492;13.388;2022-09-09T00:28:06;15.87;;;14.37;;
2107;SDS011;1060;52.492;13.388;2022-09-09T00:37:09;18.83;;;16.93;;
2107;SDS011;1060;52.492;13.388;2022-09-09T00:49:59;18.77;;;16.80;;
2107;SDS011;1060;52.492;13.388;2022-09-09T00:56:14;32.43;;;29.13;;
2107;SDS011;1060;52.492;13.388;2022-09-09T00:58:47;15.47;;;14.10;;
2107;SDS011;1060;52.492;13.388;2022-09-09T01:01:18;14.63;;;13.23;;
2107;SDS011;1060;52.492;13.388;2022-09-09T01:08:42;27.57;;;25.00;;
2107;SDS011;1060;52.492;13.388;2022-09-09T01:11:16;56.23;;;49.90;;
2107;SDS011;1060;52.492;13.388;2022-09-09T01:13:46;32.40;;;29.07;;
2107;SDS011;1060;52.492;13.388;2022-09-09T01:16:13;20.33;;;18.63;;
2107;SDS011;1060;52.492;13.388;2022-09-09T01:18:43;21.63;;;19.53;;
2107;SDS011;1060;52.492;13.388;2022-09-09T01:26:52;36.60;;;33.00;;
2107;SDS011;1060;52.492;13.388;2022-09-09T01:29:24;70.27;;;63.53;;
2107;SDS011;1060;52.492;13.388;2022-09-09T01:34:20;38.40;;;34.83;;
2107;SDS011;1060;52.492;13.388;2022-09-09T01:36:52;18.97;;;17.33;;
2107;SDS011;1060;52.492;13.388;2022-09-09T01:39:20;17.20;;;15.53;;
2107;SDS011;1060;52.492;13.388;2022-09-09T01:41:53;19.47;;;17.67;;
2107;SDS011;1060;52.492;13.388;2022-09-09T01:44:21;18.27;;;16.77;;
2107;SDS011;1060;52.492;13.388;2022-09-09T01:46:47;18.00;;;16.50;;
2107;SDS011;1060;52.492;13.388;2022-09-09T01:49:18;16.13;;;14.73;;
2107;SDS011;1060;52.492;13.388;2022-09-09T01:51:46;15.63;;;14.13;;
2107;SDS011;1060;52.492;13.388;2022-09-09T01:54:14;19.47;;;17.77;;
2107;SDS011;1060;52.492;13.388;2022-09-09T02:04:13;16.90;;;15.40;;
2107;SDS011;1060;52.492;13.388;2022-09-09T02:06:44;15.70;;;14.30;;
2107;SDS011;1060;52.492;13.388;2022-09-09T02:09:24;16.00;;;14.60;;
2107;SDS011;1060;52.492;13.388;2022-09-09T02:12:00;16.97;;;15.27;;
2107;SDS011;1060;52.492;13.388;2022-09-09T02:14:41;17.10;;;15.33;;
2107;SDS011;1060;52.492;13.388;2022-09-09T02:17:09;19.40;;;17.40;;
2107;SDS011;1060;52.492;13.388;2022-09-09T02:20:05;15.90;;;14.20;;
2107;SDS011;1060;52.492;13.388;2022-09-09T02:22:48;13.93;;;12.83;;
2107;SDS011;1060;52.492;13.388;2022-09-09T02:25:18;16.20;;;14.67;;
2107;SDS011;1060;52.492;13.388;2022-09-09T02:27:46;15.07;;;13.63;;
2107;SDS011;1060;52.492;13.388;2022-09-09T02:30:13;15.50;;;14.10;;
2107;SDS011;1060;52.492;13.388;2022-09-09T02:32:48;16.73;;;15.03;;
2107;SDS011;1060;52.492;13.388;2022-09-09T02:35:17;14.77;;;13.23;;
2107;SDS011;1060;52.492;13.388;2022-09-09T02:37:45;18.63;;;14.27;;
2107;SDS011;1060;52.492;13.388;2022-09-09T02:40:12;14.83;;;13.23;;
2107;SDS011;1060;52.492;13.388;2022-09-09T02:42:45;15.40;;;14.00;;
2107;SDS011;1060;52.492;13.388;2022-09-09T02:45:12;16.47;;;14.77;;
2107;SDS011;1060;52.492;13.388;2022-09-09T02:47:44;16.73;;;15.20;;
2107;SDS011;1060;52.492;13.388;2022-09-09T02:50:16;16.63;;;13.93;;
2107;SDS011;1060;52.492;13.388;2022-09-09T02:55:23;19.80;;;13.13;;
2107;SDS011;1060;52.492;13.388;2022-09-09T02:57:53;13.87;;;12.43;;
2107;SDS011;1060;52.492;13.388;2022-09-09T03:00:25;15.30;;;13.73;;
2107;SDS011;1060;52.492;13.388;2022-09-09T03:02:54;15.13;;;13.73;;
2107;SDS011;1060;52.492;13.388;2022-09-09T03:05:21;14.07;;;12.77;;
2107;SDS011;1060;52.492;13.388;2022-09-09T03:07:47;15.07;;;13.40;;
2107;SDS011;1060;52.492;13.388;2022-09-09T03:10:16;14.93;;;13.60;;
2107;SDS011;1060;52.492;13.388;2022-09-09T03:12:42;17.60;;;16.00;;
2107;SDS011;1060;52.492;13.388;2022-09-09T03:15:09;15.77;;;14.17;;
2107;SDS011;1060;52.492;13.388;2022-09-09T03:17:37;16.83;;;15.10;;
2107;SDS011;1060;52.492;13.388;2022-09-09T03:20:03;16.30;;;14.23;;
2107;SDS011;1060;52.492;13.388;2022-09-09T03:22:30;15.73;;;14.57;;
2107;SDS011;1060;52.492;13.388;2022-09-09T03:24:58;15.57;;;14.07;;
2107;SDS011;1060;52.492;13.388;2022-09-09T03:27:24;15.33;;;12.87;;
2107;SDS011;1060;52.492;13.388;2022-09-09T03:29:51;16.67;;;13.50;;
2107;SDS011;1060;52.492;13.388;2022-09-09T03:32:22;15.80;;;14.30;;
2107;SDS011;1060;52.492;13.388;2022-09-09T03:34:48;15.47;;;13.87;;
2107;SDS011;1060;52.492;13.388;2022-09-09T03:37:15;14.43;;;13.00;;
2107;SDS011;1060;52.492;13.388;2022-09-09T03:39:42;15.00;;;13.60;;
2107;SDS011;1060;52.492;13.388;2022-09-09T03:42:11;13.63;;;12.43;;
2107;SDS011;1060;52.492;13.388;2022-09-09T03:44:39;16.60;;;14.80;;
2107;SDS011;1060;52.492;13.388;2022-09-09T03:47:07;15.37;;;13.73;;
2107;SDS011;1060;52.492;13.388;2022-09-09T03:49:33;15.30;;;13.80;;
2107;SDS011;1060;52.492;13.388;2022-09-09T03:52:00;14.70;;;13.33;;
2107;SDS011;1060;52.492;13.388;2022-09-09T03:54:28;16.70;;;14.97;;
2107;SDS011;1060;52.492;13.388;2022-09-09T03:56:55;12.93;;;11.70;;
2107;SDS011;1060;52.492;13.388;2022-09-09T03:59:22;14.00;;;12.70;;
2107;SDS011;1060;52.492;13.388;2022-09-09T04:01:48;14.83;;;13.47;;
2107;SDS011;1060;52.492;13.388;2022-09-09T04:04:14;18.07;;;16.47;;
2107;SDS011;1060;52.492;13.388;2022-09-09T04:06:40;13.40;;;12.00;;
2107;SDS011;1060;52.492;13.388;2022-09-09T04:09:06;14.10;;;12.97;;
2107;SDS011;1060;52.492;13.388;2022-09-09T04:11:33;13.53;;;12.07;;
2107;SDS011;1060;52.492;13.388;2022-09-09T04:13:59;12.27;;;11.17;;
2107;SDS011;1060;52.492;13.388;2022-09-09T04:16:28;13.10;;;11.73;;
2107;SDS011;1060;52.492;13.388;2022-09-09T04:18:54;14.67;;;11.93;;
2107;SDS011;1060;52.492;13.388;2022-09-09T04:21:21;12.23;;;11.13;;
2107;SDS011;1060;52.492;13.388;2022-09-09T04:23:48;15.57;;;13.40;;
2107;SDS011;1060;52.492;13.388;2022-09-09T04:26:15;16.20;;;14.53;;
2107;SDS011;1060;52.492;13.388;2022-09-09T04:28:43;12.57;;;11.57;;
2107;SDS011;1060;52.492;13.388;2022-09-09T04:31:15;14.00;;;12.70;;
2107;SDS011;1060;52.492;13.388;2022-09-09T04:33:44;12.37;;;11.07;;
2107;SDS011;1060;52.492;13.388;2022-09-09T04:36:11;17.97;;;16.27;;
2107;SDS011;1060;52.492;13.388;2022-09-09T04:38:37;13.10;;;12.00;;
2107;SDS011;1060;52.492;13.388;2022-09-09T04:41:04;13.87;;;12.77;;
2107;SDS011;1060;52.492;13.388;2022-09-09T04:43:35;12.60;;;11.60;;
2107;SDS011;1060;52.492;13.388;2022-09-09T04:46:04;11.43;;;10.23;;
2107;SDS011;1060;52.492;13.388;2022-09-09T04:48:30;11.93;;;10.73;;
2107;SDS011;1060;52.492;13.388;2022-09-09T04:50:57;12.23;;;11.13;;
2107;SDS011;1060;52.492;13.388;2022-09-09T04:53:24;13.63;;;12.33;;
2107;SDS011;1060;52.492;13.388;2022-09-09T04:55:52;11.93;;;10.93;;
2107;SDS011;1060;52.492;13.388;2022-09-09T04:58:18;13.20;;;12.10;;
2107;SDS011;1060;52.492;13.388;2022-09-09T05:00:48;13.37;;;12.03;;
2107;SDS011;1060;52.492;13.388;2022-09-09T05:03:14;13.53;;;12.43;;
2107;SDS011;1060;52.492;13.388;2022-09-09T05:05:41;11.50;;;10.40;;
2107;SDS011;1060;52.492;13.388;2022-09-09T05:08:08;13.10;;;11.73;;
2107;SDS011;1060;52.492;13.388;2022-09-09T05:10:36;13.63;;;12.40;;
2107;SDS011;1060;52.492;13.388;2022-09-09T05:13:03;12.40;;;11.50;;
2107;SDS011;1060;52.492;13.388;2022-09-09T05:15:30;10.33;;;9.30;;
2107;SDS011;1060;52.492;13.388;2022-09-09T05:17:59;9.97;;;7.40;;
2107;SDS011;1060;52.492;13.388;2022-09-09T05:20:28;11.43;;;8.40;;
2107;SDS011;1060;52.492;13.388;2022-09-09T05:22:55;7.40;;;6.80;;
2107;SDS011;1060;52.492;13.388;2022-09-09T05:25:23;6.17;;;5.77;;
2107;SDS011;1060;52.492;13.388;2022-09-09T05:27:53;6.77;;;6.27;;
2107;SDS011;1060;52.492;13.388;2022-09-09T05:30:20;7.50;;;4.93;;
2107;SDS011;1060;52.492;13.388;2022-09-09T05:32:49;4.03;;;3.60;;
2107;SDS011;1060;52.492;13.388;2022-09-09T05:35:16;5.63;;;5.00;;
2107;SDS011;1060;52.492;13.388;2022-09-09T05:37:44;6.17;;;4.30;;
2107;SDS011;1060;52.492;13.388;2022-09-09T05:40:11;6.23;;;5.60;;
2107;SDS011;1060;52.492;13.388;2022-09-09T05:42:38;6.00;;;5.50;;
2107;SDS011;1060;52.492;13.388;2022-09-09T05:45:06;7.10;;;4.50;;
2107;SDS011;1060;52.492;13.388;2022-09-09T05:47:33;5.83;;;5.33;;
2107;SDS011;1060;52.492;13.388;2022-09-09T05:50:10;6.17;;;5.53;;
2107;SDS011;1060;52.492;13.388;2022-09-09T05:52:39;5.17;;;4.87;;
2107;SDS011;1060;52.492;13.388;2022-09-09T05:55:06;7.23;;;6.67;;
2107;SDS011;1060;52.492;13.388;2022-09-09T05:57:32;4.63;;;3.93;;
2107;SDS011;1060;52.492;13.388;2022-09-09T05:59:58;5.93;;;5.30;;
2107;SDS011;1060;52.492;13.388;2022-09-09T06:02:25;6.77;;;3.33;;
2107;SDS011;1060;52.492;13.388;2022-09-09T06:04:51;10.03;;;6.53;;
2107;SDS011;1060;52.492;13.388;2022-09-09T06:07:18;15.83;;;10.37;;
2107;SDS011;1060;52.492;13.388;2022-09-09T06:09:45;5.37;;;4.97;;
2107;SDS011;1060;52.492;13.388;2022-09-09T06:12:11;5.07;;;3.20;;
2107;SDS011;1060;52.492;13.388;2022-09-09T06:14:40;13.17;;;9.50;;
2107;SDS011;1060;52.492;13.388;2022-09-09T06:17:18;4.50;;;4.00;;
2107;SDS011;1060;52.492;13.388;2022-09-09T06:19:44;5.10;;;4.53;;
2107;SDS011;1060;52.492;13.388;2022-09-09T06:22:11;4.17;;;3.80;;
2107;SDS011;1060;52.492;13.388;2022-09-09T06:24:40;6.07;;;5.50;;
2107;SDS011;1060;52.492;13.388;2022-09-09T06:27:07;4.83;;;4.33;;
2107;SDS011;1060;52.492;13.388;2022-09-09T06:29:35;5.07;;;3.30;;
2107;SDS011;1060;52.492;13.388;2022-09-09T06:32:02;6.07;;;5.33;;
2107;SDS011;1060;52.492;13.388;2022-09-09T06:34:29;6.90;;;5.17;;
2107;SDS011;1060;52.492;13.388;2022-09-09T06:36:57;3.30;;;2.97;;
2107;SDS011;1060;52.492;13.388;2022-09-09T06:39:24;4.57;;;4.03;;
2107;SDS011;1060;52.492;13.388;2022-09-09T06:41:51;4.57;;;4.00;;
2107;SDS011;1060;52.492;13.388;2022-09-09T06:44:38;10.60;;;7.10;;
2107;SDS011;1060;52.492;13.388;2022-09-09T06:47:17;3.87;;;3.57;;
2107;SDS011;1060;52.492;13.388;2022-09-09T06:49:43;10.63;;;5.60;;
2107;SDS011;1060;52.492;13.388;2022-09-09T06:52:10;6.83;;;6.17;;
2107;SDS011;1060;52.492;13.388;2022-09-09T06:54:37;11.77;;;7.20;;
2107;SDS011;1060;52.492;13.388;2022-09-09T06:57:07;6.60;;;6.10;;
2107;SDS011;1060;52.492;13.388;2022-09-09T06:59:33;4.90;;;4.43;;
2107;SDS011;1060;52.492;13.388;2022-09-09T07:02:00;5.87;;;4.23;;
2107;SDS011;1060;52.492;13.388;2022-09-09T07:04:27;5.50;;;3.10;;
2107;SDS011;1060;52.492;13.388;2022-09-09T07:06:53;4.00;;;3.47;;
2107;SDS011;1060;52.492;13.388;2022-09-09T07:09:22;7.13;;;5.40;;
2107;SDS011;1060;52.492;13.388;2022-09-09T07:12:00;6.63;;;4.80;;
2107;SDS011;1060;52.492;13.388;2022-09-09T07:14:29;6.20;;;5.60;;
2107;SDS011;1060;52.492;13.388;2022-09-09T07:16:59;6.47;;;4.70;;
2107;SDS011;1060;52.492;13.388;2022-09-09T07:19:33;8.43;;;5.57;;
2107;SDS011;1060;52.492;13.388;2022-09-09T07:22:02;5.77;;;4.27;;
2107;SDS011;1060;52.492;13.388;2022-09-09T07:24:29;4.43;;;3.57;;
2107;SDS011;1060;52.492;13.388;2022-09-09T07:26:55;8.17;;;7.23;;
2107;SDS011;1060;52.492;13.388;2022-09-09T07:29:22;4.13;;;3.63;;
2107;SDS011;1060;52.492;13.388;2022-09-09T07:31:51;5.93;;;3.27;;
2107;SDS011;1060;52.492;13.388;2022-09-09T07:34:31;9.87;;;7.90;;
2107;SDS011;1060;52.492;13.388;2022-09-09T07:36:58;6.67;;;5.37;;
2107;SDS011;1060;52.492;13.388;2022-09-09T07:39:30;5.37;;;4.60;;
2107;SDS011;1060;52.492;13.388;2022-09-09T07:42:00;5.40;;;3.90;;
2107;SDS011;1060;52.492;13.388;2022-09-09T07:44:26;5.20;;;3.63;;
2107;SDS011;1060;52.492;13.388;2022-09-09T07:47:01;12.87;;;3.60;;
2107;SDS011;1060;52.492;13.388;2022-09-09T07:49:34;7.80;;;3.13;;
2107;SDS011;1060;52.492;13.388;2022-09-09T07:52:02;5.60;;;4.47;;
2107;SDS011;1060;52.492;13.388;2022-09-09T07:54:32;6.47;;;3.83;;
2107;SDS011;1060;52.492;13.388;2022-09-09T07:57:00;3.80;;;3.20;;
2107;SDS011;1060;52.492;13.388;2022-09-09T07:59:29;4.00;;;3.67;;
2107;SDS011;1060;52.492;13.388;2022-09-09T08:01:56;3.13;;;2.60;;
2107;SDS011;1060;52.492;13.388;2022-09-09T08:04:26;3.30;;;2.70;;
2107;SDS011;1060;52.492;13.388;2022-09-09T08:06:56;4.03;;;3.63;;
2107;SDS011;1060;52.492;13.388;2022-09-09T08:09:24;4.73;;;2.60;;
2107;SDS011;1060;52.492;13.388;2022-09-09T08:11:56;4.87;;;4.10;;
2107;SDS011;1060;52.492;13.388;2022-09-09T08:14:24;3.60;;;3.10;;
2107;SDS011;1060;52.492;13.388;2022-09-09T08:16:50;7.50;;;3.03;;
2107;SDS011;1060;52.492;13.388;2022-09-09T08:19:21;2.20;;;2.00;;
2107;SDS011;1060;52.492;13.388;2022-09-09T08:21:49;4.33;;;3.90;;
2107;SDS011;1060;52.492;13.388;2022-09-09T08:24:15;5.40;;;3.53;;
2107;SDS011;1060;52.492;13.388;2022-09-09T08:26:49;7.57;;;6.80;;
2107;SDS011;1060;52.492;13.388;2022-09-09T08:29:20;6.17;;;3.83;;
2107;SDS011;1060;52.492;13.388;2022-09-09T08:31:53;8.83;;;7.50;;
2107;SDS011;1060;52.492;13.388;2022-09-09T08:34:23;4.73;;;4.17;;
2107;SDS011;1060;52.492;13.388;2022-09-09T08:36:51;5.17;;;3.50;;
2107;SDS011;1060;52.492;13.388;2022-09-09T08:39:22;4.33;;;2.87;;
2107;SDS011;1060;52.492;13.388;2022-09-09T08:50:00;4.43;;;3.17;;
2107;SDS011;1060;52.492;13.388;2022-09-09T08:52:29;3.70;;;3.30;;
2107;SDS011;1060;52.492;13.388;2022-09-09T08:54:56;7.70;;;4.27;;
2107;SDS011;1060;52.492;13.388;2022-09-09T08:57:25;5.23;;;3.53;;
2107;SDS011;1060;52.492;13.388;2022-09-09T08:59:52;4.43;;;3.77;;
2107;SDS011;1060;52.492;13.388;2022-09-09T09:12:56;5.40;;;3.63;;
2107;SDS011;1060;52.492;13.388;2022-09-09T09:15:30;4.37;;;3.97;;
2107;SDS011;1060;52.492;13.388;2022-09-09T09:17:57;3.23;;;2.70;;
2107;SDS011;1060;52.492;13.388;2022-09-09T09:20:27;4.00;;;3.70;;
2107;SDS011;1060;52.492;13.388;2022-09-09T09:22:56;6.33;;;5.70;;
2107;SDS011;1060;52.492;13.388;2022-09-09T09:25:34;5.73;;;3.17;;
2107;SDS011;1060;52.492;13.388;2022-09-09T09:28:15;5.37;;;4.73;;
2107;SDS011;1060;52.492;13.388;2022-09-09T09:30:49;6.70;;;5.17;;
2107;SDS011;1060;52.492;13.388;2022-09-09T09:33:20;4.23;;;3.80;;
2107;SDS011;1060;52.492;13.388;2022-09-09T09:35:49;5.30;;;3.43;;
2107;SDS011;1060;52.492;13.388;2022-09-09T09:38:23;7.77;;;4.97;;
2107;SDS011;1060;52.492;13.388;2022-09-09T09:40:55;3.60;;;3.23;;
2107;SDS011;1060;52.492;13.388;2022-09-09T09:43:27;3.67;;;2.20;;
2107;SDS011;1060;52.492;13.388;2022-09-09T09:45:56;4.03;;;3.00;;
2107;SDS011;1060;52.492;13.388;2022-09-09T09:48:26;8.43;;;7.73;;
2107;SDS011;1060;52.492;13.388;2022-09-09T09:51:02;4.60;;;3.37;;
2107;SDS011;1060;52.492;13.388;2022-09-09T09:53:31;6.53;;;3.20;;
2107;SDS011;1060;52.492;13.388;2022-09-09T09:56:03;6.00;;;4.63;;
2107;SDS011;1060;52.492;13.388;2022-09-09T10:01:24;4.50;;;3.63;;
2107;SDS011;1060;52.492;13.388;2022-09-09T10:03:57;5.57;;;4.83;;
2107;SDS011;1060;52.492;13.388;2022-09-09T10:06:31;2.90;;;2.60;;
2107;SDS011;1060;52.492;13.388;2022-09-09T10:08:58;4.40;;;2.60;;
2107;SDS011;1060;52.492;13.388;2022-09-09T10:11:44;3.13;;;2.60;;
2107;SDS011;1060;52.492;13.388;2022-09-09T10:14:22;8.73;;;5.80;;
2107;SDS011;1060;52.492;13.388;2022-09-09T10:19:36;7.10;;;3.30;;
2107;SDS011;1060;52.492;13.388;2022-09-09T10:22:15;7.00;;;3.17;;
2107;SDS011;1060;52.492;13.388;2022-09-09T10:30:14;4.07;;;2.67;;
2107;SDS011;1060;52.492;13.388;2022-09-09T10:32:46;2.40;;;2.20;;
2107;SDS011;1060;52.492;13.388;2022-09-09T10:36:19;5.90;;;2.60;;
2107;SDS011;1060;52.492;13.388;2022-09-09T10:49:06;3.97;;;2.83;;
2107;SDS011;1060;52.492;13.388;2022-09-09T10:51:45;7.27;;;3.33;;
2107;SDS011;1060;52.492;13.388;2022-09-09T10:57:14;4.20;;;2.60;;
2107;SDS011;1060;52.492;13.388;2022-09-09T10:59:52;3.60;;;2.77;;
2107;SDS011;1060;52.492;13.388;2022-09-09T11:02:28;7.53;;;5.23;;
2107;SDS011;1060;52.492;13.388;2022-09-09T11:07:44;4.13;;;2.80;;
2107;SDS011;1060;52.492;13.388;2022-09-09T11:13:05;5.00;;;2.70;;
2107;SDS011;1060;52.492;13.388;2022-09-09T11:15:51;5.40;;;2.60;;
2107;SDS011;1060;52.492;13.388;2022-09-09T11:18:22;5.03;;;4.63;;
2107;SDS011;1060;52.492;13.388;2022-09-09T11:20:53;3.47;;;2.70;;
2107;SDS011;1060;52.492;13.388;2022-09-09T11:23:25;4.50;;;3.10;;
2107;SDS011;1060;52.492;13.388;2022-09-09T11:25:55;3.33;;;3.03;;
2107;SDS011;1060;52.492;13.388;2022-09-09T11:28:46;6.23;;;2.60;;
2107;SDS011;1060;52.492;13.388;2022-09-09T11:37:00;2.97;;;1.70;;
2107;SDS011;1060;52.492;13.388;2022-09-09T11:42:20;4.00;;;2.00;;
2107;SDS011;1060;52.492;13.388;2022-09-09T11:45:20;4.27;;;1.93;;
2107;SDS011;1060;52.492;13.388;2022-09-09T11:47:59;4.10;;;3.43;;
2107;SDS011;1060;52.492;13.388;2022-09-09T11:50:33;2.33;;;1.70;;
2107;SDS011;1060;52.492;13.388;2022-09-09T11:53:14;4.67;;;3.10;;
2107;SDS011;1060;52.492;13.388;2022-09-09T11:55:42;3.10;;;2.80;;
2107;SDS011;1060;52.492;13.388;2022-09-09T12:00:47;2.90;;;2.07;;
2107;SDS011;1060;52.492;13.388;2022-09-09T12:06:30;4.40;;;2.33;;
2107;SDS011;1060;52.492;13.388;2022-09-09T12:11:48;4.80;;;4.03;;
2107;SDS011;1060;52.492;13.388;2022-09-09T12:22:58;2.47;;;1.40;;
2107;SDS011;1060;52.492;13.388;2022-09-09T12:39:40;4.47;;;4.10;;
2107;SDS011;1060;52.492;13.388;2022-09-09T12:42:23;1.60;;;1.50;;
2107;SDS011;1060;52.492;13.388;2022-09-09T12:50:23;3.30;;;2.00;;
2107;SDS011;1060;52.492;13.388;2022-09-09T12:52:59;2.60;;;1.60;;
2107;SDS011;1060;52.492;13.388;2022-09-09T12:55:32;1.70;;;1.40;;
2107;SDS011;1060;52.492;13.388;2022-09-09T12:58:03;8.43;;;6.10;;
2107;SDS011;1060;52.492;13.388;2022-09-09T13:00:31;5.57;;;3.90;;
2107;SDS011;1060;52.492;13.388;2022-09-09T13:03:02;3.50;;;3.20;;
2107;SDS011;1060;52.492;13.388;2022-09-09T13:05:35;4.60;;;3.53;;
2107;SDS011;1060;52.492;13.388;2022-09-09T13:10:29;4.17;;;3.30;;
2107;SDS011;1060;52.492;13.388;2022-09-09T13:12:57;5.00;;;1.87;;
2107;SDS011;1060;52.492;13.388;2022-09-09T13:15:24;4.40;;;4.00;;
2107;SDS011;1060;52.492;13.388;2022-09-09T13:17:55;2.63;;;1.60;;
2107;SDS011;1060;52.492;13.388;2022-09-09T13:20:21;2.90;;;2.20;;
2107;SDS011;1060;52.492;13.388;2022-09-09T13:22:49;2.20;;;2.00;;
2107;SDS011;1060;52.492;13.388;2022-09-09T13:25:19;6.87;;;4.50;;
2107;SDS011;1060;52.492;13.388;2022-09-09T13:27:59;5.00;;;2.10;;
2107;SDS011;1060;52.492;13.388;2022-09-09T13:30:29;4.93;;;4.47;;
2107;SDS011;1060;52.492;13.388;2022-09-09T13:33:03;4.73;;;1.70;;
2107;SDS011;1060;52.492;13.388;2022-09-09T13:35:45;3.13;;;2.40;;
2107;SDS011;1060;52.492;13.388;2022-09-09T13:38:15;3.00;;;1.90;;
2107;SDS011;1060;52.492;13.388;2022-09-09T13:40:51;2.97;;;2.27;;
2107;SDS011;1060;52.492;13.388;2022-09-09T13:43:20;7.17;;;2.17;;
2107;SDS011;1060;52.492;13.388;2022-09-09T13:46:04;3.50;;;2.00;;
2107;SDS011;1060;52.492;13.388;2022-09-09T13:48:31;3.70;;;1.87;;
2107;SDS011;1060;52.492;13.388;2022-09-09T13:51:03;5.70;;;2.83;;
2107;SDS011;1060;52.492;13.388;2022-09-09T13:53:30;3.00;;;2.23;;
2107;SDS011;1060;52.492;13.388;2022-09-09T13:55:57;10.10;;;3.67;;
2107;SDS011;1060;52.492;13.388;2022-09-09T13:58:23;3.77;;;2.20;;
2107;SDS011;1060;52.492;13.388;2022-09-09T14:00:50;3.10;;;2.07;;
2107;SDS011;1060;52.492;13.388;2022-09-09T14:03:19;6.27;;;2.07;;
2107;SDS011;1060;52.492;13.388;2022-09-09T14:05:46;6.87;;;6.23;;
2107;SDS011;1060;52.492;13.388;2022-09-09T14:08:15;3.80;;;3.40;;
2107;SDS011;1060;52.492;13.388;2022-09-09T14:10:42;3.30;;;2.17;;
2107;SDS011;1060;52.492;13.388;2022-09-09T14:13:08;5.97;;;3.43;;
2107;SDS011;1060;52.492;13.388;2022-09-09T14:15:34;10.30;;;3.30;;
2107;SDS011;1060;52.492;13.388;2022-09-09T14:18:00;4.60;;;4.20;;
2107;SDS011;1060;52.492;13.388;2022-09-09T14:20:27;3.97;;;2.67;;
2107;SDS011;1060;52.492;13.388;2022-09-09T14:22:53;2.20;;;1.70;;
2107;SDS011;1060;52.492;13.388;2022-09-09T14:25:19;12.73;;;7.40;;
2107;SDS011;1060;52.492;13.388;2022-09-09T14:27:49;2.33;;;1.97;;
2107;SDS011;1060;52.492;13.388;2022-09-09T14:30:16;5.40;;;4.80;;
2107;SDS011;1060;52.492;13.388;2022-09-09T14:32:42;6.43;;;4.60;;
2107;SDS011;1060;52.492;13.388;2022-09-09T14:35:09;6.67;;;4.50;;
2107;SDS011;1060;52.492;13.388;2022-09-09T14:37:37;5.43;;;1.70;;
2107;SDS011;1060;52.492;13.388;2022-09-09T14:40:04;3.10;;;2.07;;
2107;SDS011;1060;52.492;13.388;2022-09-09T14:42:31;4.70;;;3.97;;
2107;SDS011;1060;52.492;13.388;2022-09-09T14:44:57;2.40;;;2.13;;
2107;SDS011;1060;52.492;13.388;2022-09-09T14:47:23;4.00;;;2.30;;
2107;SDS011;1060;52.492;13.388;2022-09-09T14:49:49;2.57;;;2.37;;
2107;SDS011;1060;52.492;13.388;2022-09-09T14:52:18;6.00;;;3.17;;
2107;SDS011;1060;52.492;13.388;2022-09-09T14:54:45;2.80;;;1.77;;
2107;SDS011;1060;52.492;13.388;2022-09-09T14:57:11;17.10;;;15.40;;
2107;SDS011;1060;52.492;13.388;2022-09-09T14:59:37;9.93;;;8.93;;
2107;SDS011;1060;52.492;13.388;2022-09-09T15:02:04;7.30;;;6.70;;
2107;SDS011;1060;52.492;13.388;2022-09-09T15:04:30;2.37;;;1.97;;
2107;SDS011;1060;52.492;13.388;2022-09-09T15:06:59;2.23;;;2.03;;
2107;SDS011;1060;52.492;13.388;2022-09-09T15:09:25;2.77;;;1.50;;
2107;SDS011;1060;52.492;13.388;2022-09-09T15:11:51;3.50;;;2.30;;
2107;SDS011;1060;52.492;13.388;2022-09-09T15:14:18;9.57;;;6.40;;
2107;SDS011;1060;52.492;13.388;2022-09-09T15:16:44;2.57;;;2.33;;
2107;SDS011;1060;52.492;13.388;2022-09-09T15:19:11;3.67;;;2.40;;
2107;SDS011;1060;52.492;13.388;2022-09-09T15:21:50;2.80;;;2.27;;
2107;SDS011;1060;52.492;13.388;2022-09-09T15:24:37;4.40;;;2.37;;
2107;SDS011;1060;52.492;13.388;2022-09-09T15:27:03;5.03;;;4.50;;
2107;SDS011;1060;52.492;13.388;2022-09-09T15:29:42;2.13;;;1.80;;
2107;SDS011;1060;52.492;13.388;2022-09-09T15:32:09;3.87;;;1.50;;
2107;SDS011;1060;52.492;13.388;2022-09-09T15:34:35;6.93;;;2.50;;
2107;SDS011;1060;52.492;13.388;2022-09-09T15:37:01;3.40;;;2.50;;
2107;SDS011;1060;52.492;13.388;2022-09-09T15:39:27;2.30;;;2.10;;
2107;SDS011;1060;52.492;13.388;2022-09-09T15:41:54;1.93;;;1.43;;
2107;SDS011;1060;52.492;13.388;2022-09-09T15:44:20;4.60;;;1.97;;
2107;SDS011;1060;52.492;13.388;2022-09-09T15:46:51;7.67;;;5.90;;
2107;SDS011;1060;52.492;13.388;2022-09-09T15:49:25;1.97;;;1.77;;
2107;SDS011;1060;52.492;13.388;2022-09-09T15:55:23;2.23;;;1.43;;
2107;SDS011;1060;52.492;13.388;2022-09-09T15:57:50;6.60;;;5.30;;
2107;SDS011;1060;52.492;13.388;2022-09-09T16:00:18;2.97;;;1.90;;
2107;SDS011;1060;52.492;13.388;2022-09-09T16:02:45;5.57;;;4.30;;
2107;SDS011;1060;52.492;13.388;2022-09-09T16:05:12;7.73;;;6.40;;
2107;SDS011;1060;52.492;13.388;2022-09-09T16:07:38;9.37;;;6.00;;
2107;SDS011;1060;52.492;13.388;2022-09-09T16:10:05;3.40;;;2.67;;
2107;SDS011;1060;52.492;13.388;2022-09-09T16:12:34;2.80;;;2.47;;
2107;SDS011;1060;52.492;13.388;2022-09-09T16:15:03;11.87;;;9.90;;
2107;SDS011;1060;52.492;13.388;2022-09-09T16:17:29;10.30;;;9.20;;
2107;SDS011;1060;52.492;13.388;2022-09-09T16:20:02;3.57;;;1.40;;
2107;SDS011;1060;52.492;13.388;2022-09-09T16:22:33;2.90;;;2.60;;
2107;SDS011;1060;52.492;13.388;2022-09-09T16:25:00;11.67;;;10.77;;
2107;SDS011;1060;52.492;13.388;2022-09-09T16:27:28;6.50;;;4.13;;
2107;SDS011;1060;52.492;13.388;2022-09-09T16:30:04;11.97;;;9.00;;
2107;SDS011;1060;52.492;13.388;2022-09-09T16:32:30;8.57;;;4.57;;
2107;SDS011;1060;52.492;13.388;2022-09-09T16:34:56;9.10;;;8.27;;
2107;SDS011;1060;52.492;13.388;2022-09-09T16:37:22;11.50;;;10.50;;
2107;SDS011;1060;52.492;13.388;2022-09-09T16:39:48;5.37;;;4.87;;
2107;SDS011;1060;52.492;13.388;2022-09-09T16:42:15;5.07;;;4.63;;
2107;SDS011;1060;52.492;13.388;2022-09-09T16:44:42;5.07;;;4.10;;
2107;SDS011;1060;52.492;13.388;2022-09-09T16:47:08;6.77;;;6.07;;
2107;SDS011;1060;52.492;13.388;2022-09-09T16:49:36;23.97;;;20.33;;
2107;SDS011;1060;52.492;13.388;2022-09-09T16:52:06;8.33;;;4.73;;
2107;SDS011;1060;52.492;13.388;2022-09-09T16:54:36;10.20;;;7.83;;
2107;SDS011;1060;52.492;13.388;2022-09-09T16:57:02;6.27;;;3.40;;
2107;SDS011;1060;52.492;13.388;2022-09-09T16:59:28;10.90;;;7.97;;
2107;SDS011;1060;52.492;13.388;2022-09-09T17:01:56;6.33;;;4.63;;
2107;SDS011;1060;52.492;13.388;2022-09-09T17:04:25;21.93;;;18.63;;
2107;SDS011;1060;52.492;13.388;2022-09-09T17:06:52;10.73;;;9.63;;
2107;SDS011;1060;52.492;13.388;2022-09-09T17:09:18;6.80;;;6.20;;
2107;SDS011;1060;52.492;13.388;2022-09-09T17:11:45;15.20;;;13.70;;
2107;SDS011;1060;52.492;13.388;2022-09-09T17:14:14;8.30;;;7.20;;
2107;SDS011;1060;52.492;13.388;2022-09-09T17:16:44;7.80;;;7.10;;
2107;SDS011;1060;52.492;13.388;2022-09-09T17:19:11;13.57;;;12.17;;
2107;SDS011;1060;52.492;13.388;2022-09-09T17:21:37;7.87;;;7.13;;
2107;SDS011;1060;52.492;13.388;2022-09-09T17:24:03;10.53;;;7.50;;
2107;SDS011;1060;52.492;13.388;2022-09-09T17:26:30;8.80;;;7.97;;
2107;SDS011;1060;52.492;13.388;2022-09-09T17:28:58;7.53;;;4.63;;
2107;SDS011;1060;52.492;13.388;2022-09-09T17:31:25;10.63;;;8.70;;
2107;SDS011;1060;52.492;13.388;2022-09-09T17:33:52;8.63;;;2.93;;
2107;SDS011;1060;52.492;13.388;2022-09-09T17:38:45;6.10;;;3.57;;
2107;SDS011;1060;52.492;13.388;2022-09-09T17:41:28;7.33;;;6.40;;
2107;SDS011;1060;52.492;13.388;2022-09-09T17:43:55;17.63;;;16.23;;
2107;SDS011;1060;52.492;13.388;2022-09-09T17:46:23;11.60;;;7.67;;
2107;SDS011;1060;52.492;13.388;2022-09-09T17:48:55;8.90;;;8.00;;
2107;SDS011;1060;52.492;13.388;2022-09-09T17:51:22;15.53;;;12.67;;
2107;SDS011;1060;52.492;13.388;2022-09-09T17:53:50;7.50;;;6.70;;